Time;durP1;ratioP1;P1;durP2;ratioP2;P2;SDS_P1;SDS_P2;PMS_P1;PMS_P2;Temp;Humidity;BMP_temperature;BMP_pressure;BME280_temperature;BME280_humidity;BME280_pressure;Samples;Min_cycle;Max_cycle;Signal;HPM_P1;HPM_P2
2022/05/26 00:01:06;;;;;;;6.22;4.80;;;;;;;18.65;99.84;100601.97;5012694;28;20049;-77
2022/05/26 00:03:32;;;;;;;6.82;4.22;;;;;;;18.65;99.60;100597.59;5012287;28;20054;-78
2022/05/26 00:05:59;;;;;;;8.88;4.82;;;;;;;18.64;99.23;100594.97;5012168;28;20604;-76
2022/05/26 00:08:26;;;;;;;6.35;4.80;;;;;;;18.47;98.90;100568.72;5011129;28;20033;-75
2022/05/26 00:10:51;;;;;;;8.10;4.75;;;;;;;18.59;99.09;100598.44;4991465;28;20072;-80
2022/05/26 00:13:17;;;;;;;6.93;4.47;;;;;;;18.43;99.08;100594.84;5010643;28;20117;-79
2022/05/26 00:15:42;;;;;;;7.13;4.55;;;;;;;18.38;99.70;100593.97;5012391;28;20022;-74
2022/05/26 00:18:08;;;;;;;6.55;4.78;;;;;;;18.27;99.27;100591.25;5007157;28;20049;-78
2022/05/26 00:20:33;;;;;;;7.93;4.88;;;;;;;18.42;98.23;100600.94;5010682;28;20543;-79
2022/05/26 00:22:59;;;;;;;8.57;4.55;;;;;;;18.13;98.37;100545.88;5011735;28;20022;-76
2022/05/26 00:25:25;;;;;;;6.68;4.45;;;;;;;18.19;98.56;100538.06;5008977;28;20492;-77
2022/05/26 00:27:50;;;;;;;9.82;4.75;;;;;;;18.35;98.44;100569.53;5005858;28;20022;-75
2022/05/26 00:30:16;;;;;;;6.45;4.88;;;;;;;18.25;98.57;100559.00;5010365;28;20038;-76
2022/05/26 00:32:41;;;;;;;6.70;4.60;;;;;;;18.26;98.68;100580.81;5010530;28;20515;-79
2022/05/26 00:35:07;;;;;;;7.90;4.70;;;;;;;18.09;99.34;100565.00;5011215;28;20046;-79
2022/05/26 00:37:34;;;;;;;5.70;4.70;;;;;;;18.18;99.23;100583.38;5010966;28;20022;-75
2022/05/26 00:40:01;;;;;;;6.82;4.55;;;;;;;18.07;99.49;100587.63;5010844;28;20022;-77
2022/05/26 00:42:27;;;;;;;6.05;4.50;;;;;;;18.08;99.31;100585.03;5011511;28;20027;-74
2022/05/26 00:44:53;;;;;;;8.63;4.65;;;;;;;18.00;99.16;100567.53;5011401;28;20048;-76
2022/05/26 00:47:25;;;;;;;6.35;4.47;;;;;;;18.06;99.05;100583.28;4990729;28;20792;-79
2022/05/26 00:50:03;;;;;;;7.15;5.03;;;;;;;17.95;99.29;100589.25;4980062;28;20049;-80
2022/05/26 00:52:42;;;;;;;6.03;4.88;;;;;;;18.02;99.36;100587.59;4992516;28;20456;-77
2022/05/26 00:55:13;;;;;;;6.07;4.57;;;;;;;17.95;99.05;100575.34;4998462;28;20044;-74
2022/05/26 00:57:46;;;;;;;7.80;4.65;;;;;;;17.94;99.03;100576.19;4977403;28;20038;-75
2022/05/26 01:00:21;;;;;;;6.30;4.53;;;;;;;17.94;98.82;100571.88;5011255;28;20040;-77
2022/05/26 01:03:13;;;;;;;5.03;4.25;;;;;;;18.16;97.97;100579.00;5011487;28;20033;-76
2022/05/26 01:05:46;;;;;;;6.85;4.32;;;;;;;18.18;96.79;100554.63;5011402;28;20026;-76
2022/05/26 01:08:23;;;;;;;6.47;4.20;;;;;;;18.15;96.82;100565.03;5011353;28;20038;-75
2022/05/26 01:10:48;;;;;;;6.75;4.05;;;;;;;18.16;97.43;100571.16;5011111;28;20014;-78
2022/05/26 01:13:16;;;;;;;11.25;4.93;;;;;;;18.19;97.54;100573.78;5012010;28;20477;-76
2022/05/26 01:15:49;;;;;;;8.50;4.85;;;;;;;17.95;97.99;100557.06;4976248;28;20046;-76
2022/05/26 01:18:25;;;;;;;7.15;4.70;;;;;;;18.02;98.06;100574.53;5011062;28;20126;-76
2022/05/26 01:21:24;;;;;;;7.18;4.00;;;;;;;17.94;97.91;100582.31;5012093;28;20025;-74
2022/05/26 01:24:04;;;;;;;7.55;4.55;;;;;;;17.74;99.17;100586.44;5011557;28;20499;-75
2022/05/26 01:27:08;;;;;;;7.07;4.80;;;;;;;17.28;100.00;100585.13;5012177;28;20038;-76
2022/05/26 01:29:51;;;;;;;10.05;5.13;;;;;;;17.28;100.00;100585.13;4931787;29;20075;-77
2022/05/26 01:32:32;;;;;;;6.20;4.90;;;;;;;17.11;100.00;100537.94;4930850;29;20052;-75
2022/05/26 01:35:07;;;;;;;9.77;5.05;;;;;;;17.37;100.00;100565.19;4930669;29;20087;-75
2022/05/26 01:37:50;;;;;;;7.10;5.15;;;;;;;17.53;100.00;100563.59;4931359;29;20074;-77
2022/05/26 01:40:22;;;;;;;8.50;5.35;;;;;;;17.41;100.00;100559.16;4931576;29;20051;-77
2022/05/26 01:43:28;;;;;;;9.48;5.10;;;;;;;17.38;100.00;100574.75;4931030;29;20032;-76
2022/05/26 01:46:25;;;;;;;6.93;5.07;;;;;;;17.18;100.00;100572.81;4931311;29;20039;-76
2022/05/26 01:48:53;;;;;;;7.28;5.40;;;;;;;17.27;100.00;100572.03;4931307;29;20043;-76
2022/05/26 01:51:30;;;;;;;6.35;4.82;;;;;;;17.20;100.00;100565.00;4931199;29;20130;-77
2022/05/26 01:53:58;;;;;;;6.47;5.13;;;;;;;16.93;100.00;100567.28;4930503;29;20127;-76
2022/05/26 01:56:31;;;;;;;6.40;4.55;;;;;;;16.80;100.00;100554.94;4931152;29;20593;-76
2022/05/26 01:59:25;;;;;;;6.05;4.82;;;;;;;16.41;100.00;100525.75;4931064;29;20078;-77
2022/05/26 02:01:56;;;;;;;9.15;5.00;;;;;;;16.17;100.00;100549.72;4931025;29;20054;-79
2022/05/26 02:04:27;;;;;;;8.00;5.15;;;;;;;16.33;100.00;100582.94;4927838;28;20038;-80
2022/05/26 02:07:01;;;;;;;6.47;5.30;;;;;;;15.45;100.00;100460.88;5009875;28;20034;-79
2022/05/26 02:09:32;;;;;;;7.60;5.10;;;;;;;16.31;100.00;100568.16;5010318;28;20030;-79
2022/05/26 02:12:37;;;;;;;6.32;4.70;;;;;;;16.04;100.00;100533.03;4992287;28;20037;-80
2022/05/26 02:15:14;;;;;;;8.02;5.22;;;;;;;16.20;100.00;100522.84;5010959;28;20034;-80
2022/05/26 02:17:45;;;;;;;8.55;5.05;;;;;;;16.58;100.00;100565.06;5010774;28;20030;-78
2022/05/26 02:20:19;;;;;;;8.00;4.97;;;;;;;16.60;100.00;100563.38;5010697;28;20029;-78
2022/05/26 02:23:01;;;;;;;7.53;4.72;;;;;;;16.60;100.00;100563.38;4993331;28;20052;-77
2022/05/26 02:25:28;;;;;;;9.10;4.65;;;;;;;16.43;100.00;100531.84;5010886;28;20041;-77
2022/05/26 02:27:56;;;;;;;7.38;4.72;;;;;;;16.65;100.00;100551.25;4976010;28;20042;-78
2022/05/26 02:30:33;;;;;;;6.22;5.30;;;;;;;16.92;100.00;100567.28;5010773;28;20049;-79
2022/05/26 02:33:01;;;;;;;7.63;5.05;;;;;;;17.10;100.00;100574.47;5009659;28;20124;-75
2022/05/26 02:35:30;;;;;;;7.00;4.50;;;;;;;17.26;100.00;100552.91;4991929;28;20056;-78
2022/05/26 02:38:02;;;;;;;7.45;4.70;;;;;;;17.58;100.00;100575.84;5010503;28;20152;-78
2022/05/26 02:40:28;;;;;;;7.65;5.00;;;;;;;17.57;99.77;100558.44;5010782;28;20123;-77
2022/05/26 02:43:00;;;;;;;7.55;4.80;;;;;;;17.73;99.18;100566.41;5010435;28;20030;-78
2022/05/26 02:46:01;;;;;;;8.23;5.20;;;;;;;17.76;98.94;100575.13;4991794;28;20400;-76
2022/05/26 02:48:48;;;;;;;6.80;5.53;;;;;;;17.77;98.91;100566.44;5008346;28;20030;-77
2022/05/26 02:51:29;;;;;;;8.30;5.90;;;;;;;17.79;98.18;100554.28;5010726;28;20034;-78
2022/05/26 02:54:15;;;;;;;7.32;5.07;;;;;;;17.90;96.74;100572.66;5011040;28;20034;-76
2022/05/26 02:56:49;;;;;;;10.13;5.68;;;;;;;17.76;96.18;100561.22;4934652;29;20082;-76
2022/05/26 02:59:40;;;;;;;7.28;5.47;;;;;;;18.01;95.44;100598.03;4918701;29;20040;-77
2022/05/26 03:02:21;;;;;;;13.73;5.70;;;;;;;17.95;95.41;100610.16;4918014;29;20035;-78
2022/05/26 03:04:53;;;;;;;7.00;5.47;;;;;;;17.79;95.52;100556.91;4934525;29;20047;-78
2022/05/26 03:07:27;;;;;;;8.85;6.03;;;;;;;17.92;95.32;100589.22;4934326;29;20524;-78
2022/05/26 03:09:53;;;;;;;7.68;5.15;;;;;;;17.66;94.94;100573.31;4934263;29;20036;-77
2022/05/26 03:12:30;;;;;;;8.15;5.35;;;;;;;17.75;94.30;100578.59;4934078;29;20035;-77
2022/05/26 03:14:55;;;;;;;8.45;5.10;;;;;;;17.81;94.18;100608.25;4934328;29;20044;-76
2022/05/26 03:17:21;;;;;;;8.50;5.10;;;;;;;17.86;94.30;100612.66;4933974;29;20047;-78
2022/05/26 03:19:48;;;;;;;9.07;5.40;;;;;;;17.90;94.08;100613.56;4934136;29;20107;-77
2022/05/26 03:22:13;;;;;;;6.53;5.05;;;;;;;17.74;94.54;100578.59;4934049;29;20067;-78
2022/05/26 03:24:39;;;;;;;7.60;5.75;;;;;;;17.77;95.07;100587.34;4934010;29;20114;-75
2022/05/26 03:27:05;;;;;;;8.05;5.80;;;;;;;17.88;95.75;100610.94;4933839;29;20589;-78
2022/05/26 03:29:30;;;;;;;10.20;7.47;;;;;;;17.71;96.66;100604.69;4934066;29;20028;-77
2022/05/26 03:31:56;;;;;;;16.48;8.75;;;;;;;17.56;98.13;100598.44;4917915;29;20423;-77
2022/05/26 03:42:34;;;;;;;26.35;12.05;;;;;;;17.12;100.00;100591.00;5012405;28;20036;-78
2022/05/26 03:45:02;;;;;;;18.58;11.95;;;;;;;17.01;100.00;100598.69;4995419;28;20416;-78
2022/05/26 03:47:28;;;;;;;16.13;11.27;;;;;;;16.85;100.00;100584.56;5013251;28;20507;-78
2022/05/26 03:49:53;;;;;;;12.77;10.82;;;;;;;16.85;100.00;100599.31;5012934;28;20065;-78
2022/05/26 03:52:18;;;;;;;15.77;11.52;;;;;;;16.73;100.00;100582.66;5013355;28;20033;-78
2022/05/26 03:54:44;;;;;;;14.13;12.68;;;;;;;16.69;100.00;100583.47;5013389;28;20034;-78
2022/05/26 03:57:09;;;;;;;15.45;13.95;;;;;;;16.53;100.00;100586.72;5013352;28;20473;-77
2022/05/26 03:59:40;;;;;;;17.35;14.50;;;;;;;16.45;100.00;100597.03;5013289;28;20194;-77
2022/05/26 04:02:05;;;;;;;17.00;15.20;;;;;;;16.41;100.00;100592.63;5013407;28;20026;-78
2022/05/26 04:04:31;;;;;;;17.65;15.98;;;;;;;16.25;100.00;100558.53;5012536;28;20036;-76
2022/05/26 04:06:57;;;;;;;19.10;16.17;;;;;;;16.43;100.00;100590.91;5013048;28;20088;-77
2022/05/26 04:09:22;;;;;;;18.75;17.05;;;;;;;16.26;100.00;100567.22;5012863;28;20065;-78
2022/05/26 04:11:48;;;;;;;18.55;16.75;;;;;;;16.51;100.00;100607.56;5012995;28;20037;-78
2022/05/26 04:14:13;;;;;;;19.73;17.75;;;;;;;16.76;100.00;100613.09;5012799;28;20030;-76
2022/05/26 04:16:38;;;;;;;19.38;17.58;;;;;;;16.87;100.00;100621.06;5005681;28;20542;-78
2022/05/26 04:19:04;;;;;;;20.60;17.73;;;;;;;16.74;100.00;100617.44;5003071;28;20075;-81
2022/05/26 04:21:29;;;;;;;19.30;17.05;;;;;;;16.86;100.00;100633.25;5001901;28;20034;-80
2022/05/26 04:23:55;;;;;;;19.38;17.48;;;;;;;16.98;100.00;100622.13;4992846;28;20042;-77
2022/05/26 04:26:21;;;;;;;18.65;16.75;;;;;;;17.00;100.00;100619.53;4993287;28;20037;-78
2022/05/26 04:32:08;;;;;;;20.15;17.52;;;;;;;16.45;100.00;100498.03;5060890;23;20122;-75
2022/05/26 04:34:34;;;;;;;19.02;17.02;;;;;;;16.40;100.00;100474.50;5012996;28;20431;-78
2022/05/26 04:36:59;;;;;;;18.38;16.55;;;;;;;16.92;100.00;100567.28;4996846;28;20034;-78
2022/05/26 04:39:25;;;;;;;17.45;15.55;;;;;;;17.14;100.00;100603.19;4993066;28;20057;-78
2022/05/26 04:41:50;;;;;;;18.52;16.70;;;;;;;17.13;100.00;100609.28;4991792;28;20030;-76
2022/05/26 04:44:17;;;;;;;17.10;15.43;;;;;;;17.10;100.00;100630.09;4942502;28;20050;-78
2022/05/26 04:46:44;;;;;;;18.42;16.63;;;;;;;17.10;100.00;100608.38;4993192;28;20030;-79
2022/05/26 04:49:09;;;;;;;19.95;15.65;;;;;;;17.20;100.00;100623.28;4992966;28;20026;-79
2022/05/26 04:51:37;;;;;;;17.42;14.95;;;;;;;17.35;100.00;100617.38;4992126;28;20080;-78
2022/05/26 04:54:04;;;;;;;17.35;13.88;;;;;;;17.43;100.00;100633.09;4992506;28;20037;-81
2022/05/26 04:56:30;;;;;;;16.45;14.75;;;;;;;17.50;100.00;100611.44;4973978;28;20038;-78
2022/05/26 04:58:56;;;;;;;16.92;15.18;;;;;;;17.58;100.00;100601.97;4992746;28;20037;-78
2022/05/26 05:01:22;;;;;;;17.52;15.18;;;;;;;17.65;100.00;100609.84;4992663;28;20030;-78
2022/05/26 05:03:48;;;;;;;16.85;15.13;;;;;;;17.67;100.00;100631.63;4992654;28;20031;-77
2022/05/26 05:06:15;;;;;;;19.15;15.82;;;;;;;17.58;100.00;100637.63;4987252;28;20390;-77
2022/05/26 05:08:43;;;;;;;20.00;16.02;;;;;;;17.51;100.00;100607.97;4991814;28;20104;-76
2022/05/26 05:11:10;;;;;;;18.88;16.25;;;;;;;17.82;100.00;100643.94;4991703;28;20030;-78
2022/05/26 05:13:37;;;;;;;17.63;15.95;;;;;;;17.74;100.00;100636.03;4991697;28;20151;-80
2022/05/26 05:16:04;;;;;;;18.88;16.95;;;;;;;17.89;100.00;100646.63;4991246;28;20026;-76
2022/05/26 05:18:30;;;;;;;18.63;16.70;;;;;;;18.09;100.00;100646.88;4991183;28;20113;-77
2022/05/26 05:21:07;;;;;;;18.75;16.85;;;;;;;18.22;100.00;100649.59;4991536;28;20429;-76
2022/05/26 05:23:37;;;;;;;20.40;18.30;;;;;;;18.33;100.00;100652.28;4991130;28;20076;-76
2022/05/26 05:26:04;;;;;;;21.63;18.10;;;;;;;18.22;100.00;100624.31;4990888;28;20435;-77
2022/05/26 05:28:38;;;;;;;21.48;19.13;;;;;;;18.49;100.00;100653.28;4990271;28;20121;-78
2022/05/26 05:31:14;;;;;;;26.00;18.70;;;;;;;18.43;100.00;100627.97;4990371;28;20065;-79
2022/05/26 05:33:44;;;;;;;24.00;19.92;;;;;;;18.62;100.00;100655.13;4990258;28;20038;-78
2022/05/26 05:36:17;;;;;;;22.88;20.13;;;;;;;18.70;100.00;100657.78;4989874;28;20148;-76
2022/05/26 05:38:43;;;;;;;24.90;20.98;;;;;;;18.83;100.00;100646.53;4988889;28;20033;-78
2022/05/26 05:41:10;;;;;;;27.30;21.77;;;;;;;19.01;100.00;100658.00;4991243;28;20034;-78
2022/05/26 05:43:37;;;;;;;25.67;21.40;;;;;;;18.88;100.00;100638.72;4985667;28;20026;-77
2022/05/26 05:46:03;;;;;;;25.35;20.90;;;;;;;18.94;100.00;100627.44;4954089;28;20425;-78
2022/05/26 05:48:28;;;;;;;27.30;22.50;;;;;;;19.18;100.00;100640.63;4986948;28;20026;-79
2022/05/26 05:50:54;;;;;;;26.27;22.38;;;;;;;19.35;100.00;100647.66;4990918;28;20041;-78
2022/05/26 05:53:20;;;;;;;28.27;23.33;;;;;;;19.46;100.00;100621.53;4973366;28;20420;-76
2022/05/26 05:55:45;;;;;;;31.60;24.92;;;;;;;19.71;100.00;100639.06;4990881;28;20145;-77
2022/05/26 05:58:11;;;;;;;37.65;29.05;;;;;;;19.93;100.00;100646.97;4956737;28;20044;-77
2022/05/26 06:00:39;;;;;;;35.85;28.77;;;;;;;20.06;100.00;100655.72;4990982;28;20044;-78
2022/05/26 06:03:05;;;;;;;40.70;29.40;;;;;;;20.16;100.00;100653.97;4989173;28;20397;-78
2022/05/26 06:05:33;;;;;;;35.63;28.45;;;;;;;20.14;100.00;100634.78;4990941;28;20088;-77
2022/05/26 06:07:58;;;;;;;40.28;29.42;;;;;;;20.48;100.00;100661.81;4990332;28;20580;-78
2022/05/26 06:10:24;;;;;;;42.50;30.75;;;;;;;20.37;100.00;100621.63;4954835;28;20129;-78
2022/05/26 06:12:50;;;;;;;39.55;30.17;;;;;;;20.49;100.00;100639.13;4990243;28;20023;-78
2022/05/26 06:15:15;;;;;;;40.30;29.98;;;;;;;20.67;100.00;100662.69;4988532;28;20041;-77
2022/05/26 06:17:42;;;;;;;40.10;29.88;;;;;;;20.79;100.00;100667.06;4988665;28;20027;-76
2022/05/26 06:20:10;;;;;;;43.85;31.75;;;;;;;20.84;100.00;100653.94;4990048;28;20096;-77
2022/05/26 06:22:39;;;;;;;41.42;29.40;;;;;;;20.84;100.00;100631.19;4990900;28;20030;-77
2022/05/26 06:25:05;;;;;;;42.30;30.52;;;;;;;20.84;100.00;100657.44;4990924;28;20058;-78
2022/05/26 06:30:18;;;;;;;38.42;30.17;;;;;;;21.01;100.00;100670.50;4990246;28;20056;-79
2022/05/26 06:38:13;;;;;;;44.22;31.27;;;;;;;21.49;100.00;100664.19;4925544;29;20510;-77
2022/05/26 06:40:38;;;;;;;45.03;32.53;;;;;;;21.55;100.00;100658.91;4929405;29;20107;-76
2022/05/26 06:43:04;;;;;;;40.65;30.75;;;;;;;21.69;100.00;100658.84;4930533;29;20040;-77
2022/05/26 06:45:30;;;;;;;38.50;29.50;;;;;;;21.70;99.99;100665.88;4930583;29;20407;-78
2022/05/26 06:47:56;;;;;;;40.75;30.35;;;;;;;21.80;100.00;100666.69;4923149;29;20512;-78
2022/05/26 06:50:21;;;;;;;41.78;30.65;;;;;;;21.86;99.34;100668.38;4911975;29;20041;-78
2022/05/26 06:52:47;;;;;;;38.33;29.50;;;;;;;21.50;99.07;100605.53;4912511;29;20037;-75
2022/05/26 06:55:12;;;;;;;43.03;31.83;;;;;;;21.96;100.00;100664.84;4911952;29;20109;-76
2022/05/26 06:57:38;;;;;;;42.03;31.33;;;;;;;21.92;99.82;100642.06;4911876;29;20091;-75
2022/05/26 07:00:06;;;;;;;42.78;31.55;;;;;;;22.25;99.50;100661.09;4912143;29;20040;-78
2022/05/26 07:02:31;;;;;;;41.85;29.38;;;;;;;22.38;98.29;100668.03;4912254;29;20072;-77
2022/05/26 07:04:57;;;;;;;40.78;30.52;;;;;;;22.55;97.60;100667.00;4912115;29;20071;-75
2022/05/26 07:07:25;;;;;;;40.63;32.85;;;;;;;22.51;98.20;100667.94;4911886;29;20107;-76
2022/05/26 07:09:55;;;;;;;40.65;28.85;;;;;;;22.70;96.88;100668.63;4911702;29;20048;-78
2022/05/26 07:12:21;;;;;;;39.90;32.50;;;;;;;;;;4912030;29;20136;-78
2022/05/26 07:14:46;;;;;;;38.97;32.05;;;;;;;;;;4928629;28;20126;-76
2022/05/26 07:17:12;;;;;;;44.17;31.77;;;;;;;23.10;94.60;100665.53;4971846;28;20077;-75
2022/05/26 07:19:57;;;;;;;43.35;30.70;;;;;;;23.26;93.14;100664.53;4971940;28;20062;-75
2022/05/26 07:22:23;;;;;;;39.70;31.85;;;;;;;23.30;94.72;100656.56;4930807;29;20194;-79
2022/05/26 07:24:49;;;;;;;38.78;29.95;;;;;;;23.36;93.97;100661.75;4930767;29;20079;-78
2022/05/26 07:27:15;;;;;;;39.70;30.05;;;;;;;23.52;92.91;100654.53;4931098;29;20090;-78
2022/05/26 07:29:41;;;;;;;38.13;30.30;;;;;;;23.68;92.19;100660.44;4930907;29;20040;-76
2022/05/26 07:32:07;;;;;;;39.40;29.80;;;;;;;23.86;90.30;100662.81;4930561;29;20191;-77
2022/05/26 07:34:33;;;;;;;35.92;28.88;;;;;;;23.75;89.58;100627.81;4930817;29;20063;-78
2022/05/26 07:42:47;;;;;;;36.38;28.27;;;;;;;24.03;90.14;100640.63;4934126;29;20110;-76
2022/05/26 07:45:13;;;;;;;34.55;26.92;;;;;;;24.11;89.39;100651.91;4914780;29;20130;-77
2022/05/26 07:47:38;;;;;;;33.38;24.80;;;;;;;24.06;87.94;100630.91;4914976;29;20507;-78
2022/05/26 07:50:09;;;;;;;32.45;26.65;;;;;;;24.32;87.13;100650.66;4915198;29;20048;-78
2022/05/26 07:52:35;;;;;;;36.25;27.30;;;;;;;24.55;87.78;100654.69;4918101;29;20071;-74
2022/05/26 07:55:00;;;;;;;35.65;25.98;;;;;;;24.64;88.30;100658.94;4933903;29;20040;-76
2022/05/26 07:57:27;;;;;;;37.30;28.25;;;;;;;24.73;89.19;100658.78;4933732;29;20078;-77
2022/05/26 07:59:54;;;;;;;32.67;25.40;;;;;;;24.60;86.41;100625.56;4933793;29;20043;-75
2022/05/26 08:02:20;;;;;;;32.75;26.23;;;;;;;24.77;87.01;100662.22;4933732;29;20032;-75
2022/05/26 08:04:46;;;;;;;38.58;27.23;;;;;;;24.85;86.35;100642.69;4917901;29;20039;-76
2022/05/26 08:07:13;;;;;;;36.03;26.40;;;;;;;24.96;87.35;100655.72;4933923;29;20062;-79
2022/05/26 08:09:40;;;;;;;33.30;25.73;;;;;;;25.20;84.16;100662.25;4933603;29;20031;-78
2022/05/26 08:12:07;;;;;;;34.88;27.58;;;;;;;25.04;88.54;100635.28;4933628;29;20577;-76
2022/05/26 08:14:34;;;;;;;32.42;25.85;;;;;;;25.20;85.87;100627.91;4933472;29;20035;-77
2022/05/26 08:17:00;;;;;;;30.77;24.08;;;;;;;25.45;83.48;100652.97;4967416;28;20126;-79
2022/05/26 08:19:27;;;;;;;33.10;25.33;;;;;;;25.64;82.10;100654.28;4974443;28;20027;-77
2022/05/26 08:21:53;;;;;;;32.30;25.98;;;;;;;25.80;81.20;100664.53;4974606;28;20033;-76
2022/05/26 08:24:19;;;;;;;31.08;24.17;;;;;;;25.75;80.03;100667.25;4974488;28;20398;-77
2022/05/26 08:26:46;;;;;;;30.92;23.85;;;;;;;25.54;79.66;100681.84;4974469;28;20039;-77
2022/05/26 08:29:12;;;;;;;32.17;24.90;;;;;;;25.63;79.79;100678.13;4974339;28;20089;-77
2022/05/26 08:31:37;;;;;;;32.45;24.05;;;;;;;25.56;80.05;100650.97;4974291;28;20082;-76
2022/05/26 08:34:03;;;;;;;34.00;24.70;;;;;;;25.59;80.88;100672.03;4974189;28;20030;-75
2022/05/26 08:36:29;;;;;;;32.83;24.17;;;;;;;25.60;81.71;100668.47;4974286;28;20053;-75
2022/05/26 08:38:55;;;;;;;40.55;24.13;;;;;;;25.80;79.78;100667.16;4972827;28;20125;-79
2022/05/26 08:41:31;;;;;;;32.78;24.17;;;;;;;25.54;79.40;100626.31;4974191;28;20042;-77
2022/05/26 08:44:13;;;;;;;32.97;23.50;;;;;;;25.91;78.84;100674.84;4939538;28;20133;-78
2022/05/26 08:46:54;;;;;;;30.98;24.13;;;;;;;26.09;79.14;100677.06;4973865;28;20081;-76
2022/05/26 08:49:42;;;;;;;34.15;23.42;;;;;;;26.26;77.68;100678.44;4973499;28;20029;-77
2022/05/26 08:52:10;;;;;;;30.98;22.23;;;;;;;26.40;76.46;100678.94;4972809;28;20154;-78
2022/05/26 08:54:45;;;;;;;31.85;22.17;;;;;;;26.70;75.21;100675.56;4973834;28;20034;-78
2022/05/26 08:57:18;;;;;;;27.65;21.08;;;;;;;26.62;76.45;100644.84;4973834;28;20054;-78
2022/05/26 08:59:46;;;;;;;29.70;23.08;;;;;;;26.90;77.37;100670.59;4973914;28;20027;-77
2022/05/26 09:02:36;;;;;;;27.73;20.88;;;;;;;27.04;73.72;100667.59;4973484;28;20030;-78
2022/05/26 09:05:15;;;;;;;30.63;19.95;;;;;;;26.95;72.07;100636.91;4951806;29;20055;-75
2022/05/26 09:13:34;;;;;;;24.02;18.35;;;;;;;27.46;70.52;100653.13;4951797;29;20034;-77
2022/05/26 09:16:00;;;;;;;24.48;17.38;;;;;;;27.64;69.67;100657.00;4951478;29;20039;-78
2022/05/26 09:18:25;;;;;;;21.25;17.50;;;;;;;27.93;70.96;100655.19;4951544;29;20034;-76
2022/05/26 09:20:52;;;;;;;27.45;19.88;;;;;;;28.02;70.71;100649.56;4951490;29;20413;-74
2022/05/26 09:23:29;;;;;;;26.35;17.52;;;;;;;28.28;67.50;100653.19;4951223;29;20089;-78
2022/05/26 09:26:06;;;;;;;24.67;17.63;;;;;;;28.30;65.61;100661.09;4951273;29;20445;-76
2022/05/26 09:28:44;;;;;;;24.40;16.52;;;;;;;28.41;65.00;100651.84;4951484;29;20035;-79
2022/05/26 09:31:34;;;;;;;23.42;15.15;;;;;;;28.54;64.19;100660.25;4951233;29;20518;-75
2022/05/26 09:33:59;;;;;;;;;;;;;;;28.31;66.25;100661.03;4951814;29;20031;-77
2022/05/26 09:36:28;;;;;;;24.08;16.58;;;;;;;28.24;65.23;100665.69;4951177;29;19969;-78
2022/05/26 09:38:54;;;;;;;24.77;15.48;;;;;;;28.31;65.17;100660.19;4951214;29;20051;-75
2022/05/26 09:41:20;;;;;;;21.60;15.05;;;;;;;28.13;64.34;100659.03;4955738;28;20045;-76
2022/05/26 09:43:52;;;;;;;24.20;15.27;;;;;;;28.12;65.69;100662.59;4973127;28;20058;-77
2022/05/26 09:46:18;;;;;;;25.48;15.27;;;;;;;28.19;63.60;100670.28;4972933;28;20034;-74
2022/05/26 09:48:46;;;;;;;20.20;14.45;;;;;;;28.23;64.45;100661.28;4968230;28;20401;-76
2022/05/26 09:51:21;;;;;;;22.10;14.35;;;;;;;28.17;62.09;100634.09;4972738;28;20026;-78
2022/05/26 09:53:48;;;;;;;20.85;14.70;;;;;;;28.59;63.43;100662.75;4972877;28;20042;-74
2022/05/26 09:56:53;;;;;;;19.05;14.35;;;;;;;28.79;62.56;100653.25;4972774;28;20529;-76
2022/05/26 09:59:29;;;;;;;21.27;13.50;;;;;;;28.80;60.52;100653.19;4893632;29;20037;-78
2022/05/26 10:02:12;;;;;;;26.77;14.13;;;;;;;28.87;63.76;100645.84;4893757;29;20037;-77
2022/05/26 10:05:06;;;;;;;20.95;12.68;;;;;;;29.16;61.06;100646.53;4893356;29;20044;-78
2022/05/26 10:07:58;;;;;;;23.13;13.85;;;;;;;29.23;61.02;100647.19;4893935;29;20072;-79
2022/05/26 10:10:32;;;;;;;19.45;14.40;;;;;;;29.29;63.94;100645.19;4893679;29;20519;-76
2022/05/26 10:13:29;;;;;;;20.27;13.07;;;;;;;29.27;60.36;100644.34;4893643;29;20179;-79
2022/05/26 10:16:09;;;;;;;19.58;13.55;;;;;;;29.45;61.71;100647.25;4893452;29;20447;-75
2022/05/26 10:18:55;;;;;;;21.90;13.02;;;;;;;29.69;58.89;100634.75;4893562;29;20044;-76
2022/05/26 10:21:39;;;;;;;23.20;12.50;;;;;;;29.85;57.89;100629.69;4893666;29;20057;-74
2022/05/26 10:24:32;;;;;;;23.00;13.65;;;;;;;29.92;58.97;100639.19;4893529;29;20047;-76
2022/05/26 10:27:26;;;;;;;17.75;12.45;;;;;;;30.02;56.37;100613.06;4893872;29;20165;-78
2022/05/26 10:30:23;;;;;;;15.55;11.40;;;;;;;30.03;54.87;100633.41;4893280;29;20060;-74
2022/05/26 10:33:24;;;;;;;24.05;11.15;;;;;;;30.26;55.14;100628.94;4893482;29;20057;-76
2022/05/26 10:36:02;;;;;;;20.15;10.90;;;;;;;30.46;52.79;100604.94;4922592;28;20043;-76
2022/05/26 10:38:37;;;;;;;17.92;11.75;;;;;;;30.78;54.40;100631.97;4972177;28;20035;-77
2022/05/26 10:41:14;;;;;;;16.38;11.55;;;;;;;30.89;56.42;100631.47;4971994;28;20043;-79
2022/05/26 10:43:52;;;;;;;13.95;11.52;;;;;;;30.90;56.28;100632.34;4972224;28;20466;-75
2022/05/26 10:46:29;;;;;;;18.77;12.55;;;;;;;30.71;54.83;100625.19;4972195;28;20031;-77
2022/05/26 10:49:22;;;;;;;19.25;11.90;;;;;;;30.97;55.17;100628.47;4972189;28;20031;-77
2022/05/26 10:52:06;;;;;;;18.50;12.48;;;;;;;30.80;52.43;100627.44;4970603;28;20030;-75
2022/05/26 10:54:54;;;;;;;18.33;12.40;;;;;;;31.02;58.47;100629.13;4972159;28;20031;-74
2022/05/26 10:57:20;;;;;;;18.23;12.35;;;;;;;31.19;53.79;100625.72;4971999;28;20035;-75
2022/05/26 11:00:00;;;;;;;20.95;11.88;;;;;;;31.12;53.32;100625.13;4971814;28;20511;-78
2022/05/26 11:02:50;;;;;;;15.80;11.00;;;;;;;31.34;50.83;100613.47;4972200;28;20058;-75
2022/05/26 11:05:24;;;;;;;17.98;11.82;;;;;;;31.36;53.76;100602.69;4971974;28;20497;-75
2022/05/26 11:07:55;;;;;;;14.75;11.60;;;;;;;31.45;54.69;100621.81;4971966;28;20118;-78
2022/05/26 11:10:31;;;;;;;22.52;11.02;;;;;;;31.15;49.94;100613.44;4971856;28;20058;-75
2022/05/26 11:13:04;;;;;;;16.25;11.15;;;;;;;31.29;52.89;100615.44;4971989;28;20033;-78
2022/05/26 11:19:06;;;;;;;16.70;11.30;;;;;;;31.73;52.44;100603.59;4975579;28;20074;-75
2022/05/26 11:21:31;;;;;;;19.55;10.55;;;;;;;31.85;51.92;100610.13;4915464;29;20036;-76
2022/05/26 11:23:57;;;;;;;18.67;11.27;;;;;;;31.86;49.88;100603.84;4915270;29;20035;-75
2022/05/26 11:26:40;;;;;;;17.38;10.95;;;;;;;31.66;49.82;100597.69;4915431;29;20160;-76
2022/05/26 11:29:24;;;;;;;15.13;11.48;;;;;;;31.73;51.42;100599.13;4915732;29;20043;-77
2022/05/26 11:38:04;;;;;;;15.63;10.95;;;;;;;31.81;52.03;100566.69;4877478;29;20085;-75
2022/05/26 11:40:35;;;;;;;16.73;10.82;;;;;;;32.22;50.08;100578.91;4877554;29;20643;-75
2022/05/26 11:43:02;;;;;;;15.50;11.90;;;;;;;32.43;48.69;100569.75;4877601;29;20050;-78
2022/05/26 11:45:49;;;;;;;20.42;11.13;;;;;;;32.77;55.86;100579.63;4877464;29;20045;-75
2022/05/26 11:48:30;;;;;;;20.55;11.85;;;;;;;32.86;49.55;100574.63;4877572;29;20052;-75
2022/05/26 11:50:59;;;;;;;16.48;11.75;;;;;;;32.67;49.36;100563.19;4877376;29;20052;-74
2022/05/26 11:53:27;;;;;;;16.58;11.20;;;;;;;32.76;48.21;100573.38;4877389;29;20076;-77
2022/05/26 11:55:58;;;;;;;14.45;11.35;;;;;;;32.87;48.88;100557.59;4877264;29;20033;-75
2022/05/26 11:58:37;;;;;;;20.30;12.05;;;;;;;33.19;50.18;100570.16;4914681;29;20072;-75
2022/05/26 12:01:19;;;;;;;17.48;12.43;;;;;;;33.11;48.04;100565.25;4914838;29;20459;-77
2022/05/26 12:03:56;;;;;;;14.10;11.50;;;;;;;32.99;50.50;100564.09;4914772;29;20036;-75
2022/05/26 12:06:40;;;;;;;19.25;11.90;;;;;;;32.83;49.63;100557.88;4914771;29;20052;-75
2022/05/26 12:09:31;;;;;;;16.55;12.15;;;;;;;32.72;50.02;100563.78;4914727;29;20040;-78
2022/05/26 12:12:07;;;;;;;16.67;11.50;;;;;;;32.82;49.24;100559.69;4884399;29;20088;-78
2022/05/26 12:14:50;;;;;;;19.52;12.13;;;;;;;32.86;51.25;100558.59;4889697;29;20132;-79